createdAt,value
2022-07-27T00:01:14.293Z,5.10
2022-07-27T00:03:42.213Z,5.57
2022-07-27T00:06:09.551Z,4.90
2022-07-27T00:08:36.982Z,4.95
2022-07-27T00:11:04.682Z,4.90
2022-07-27T00:13:32.135Z,4.78
2022-07-27T00:15:59.515Z,5.03
2022-07-27T00:18:26.813Z,4.80
2022-07-27T00:20:53.964Z,4.30
2022-07-27T00:23:21.158Z,5.80
2022-07-27T00:25:48.468Z,5.40
2022-07-27T00:28:15.609Z,4.80
2022-07-27T00:30:42.823Z,5.80
2022-07-27T00:33:10.412Z,5.30
2022-07-27T00:35:44.191Z,5.25
2022-07-27T00:38:11.521Z,5.00
2022-07-27T00:40:38.700Z,4.70
2022-07-27T00:43:05.905Z,5.05
2022-07-27T00:45:33.294Z,4.72
2022-07-27T00:48:00.488Z,5.28
2022-07-27T00:50:27.627Z,4.88
2022-07-27T00:52:55.573Z,4.50
2022-07-27T00:55:22.843Z,3.78
2022-07-27T00:57:58.435Z,4.47
2022-07-27T01:00:27.761Z,4.63
2022-07-27T01:02:57.079Z,5.18
2022-07-27T01:05:36.167Z,3.97
2022-07-27T01:08:07.014Z,3.90
2022-07-27T01:10:34.308Z,4.55
2022-07-27T01:13:01.506Z,4.10
2022-07-27T01:15:28.925Z,4.25
2022-07-27T01:17:56.067Z,4.65
2022-07-27T01:20:23.225Z,4.68
2022-07-27T01:22:50.865Z,4.25
2022-07-27T01:25:18.013Z,4.65
2022-07-27T01:27:45.162Z,4.15
2022-07-27T01:30:29.620Z,3.30
2022-07-27T01:33:07.196Z,3.72
2022-07-27T01:35:34.808Z,3.45
2022-07-27T01:38:02.166Z,4.32
2022-07-27T01:40:29.506Z,3.95
2022-07-27T01:42:56.845Z,4.07
2022-07-27T01:45:24.061Z,3.58
2022-07-27T01:47:51.202Z,4.40
2022-07-27T01:50:18.560Z,4.32
2022-07-27T01:52:45.705Z,5.10
2022-07-27T01:55:13.161Z,4.40
2022-07-27T01:57:40.604Z,5.13
2022-07-27T02:00:10.823Z,4.95
2022-07-27T02:02:38.083Z,5.35
2022-07-27T02:05:05.941Z,5.03
2022-07-27T02:07:33.198Z,5.88
2022-07-27T02:10:00.348Z,7.65
2022-07-27T02:12:36.911Z,8.65
2022-07-27T02:15:08.578Z,9.00
2022-07-27T02:17:43.094Z,9.63
2022-07-27T02:20:10.549Z,9.52
2022-07-27T02:22:37.729Z,8.75
2022-07-27T02:25:06.419Z,8.65
2022-07-27T02:27:33.637Z,8.43
2022-07-27T02:30:00.905Z,8.38
2022-07-27T02:32:28.376Z,7.47
2022-07-27T02:34:55.605Z,7.18
2022-07-27T02:37:22.909Z,5.25
2022-07-27T02:39:50.302Z,6.30
2022-07-27T02:42:17.526Z,5.70
2022-07-27T02:44:44.677Z,6.07
2022-07-27T02:47:12.221Z,6.60
2022-07-27T02:49:39.383Z,5.30
2022-07-27T02:52:06.749Z,4.30
2022-07-27T02:54:34.986Z,4.00
2022-07-27T02:57:05.504Z,4.40
2022-07-27T02:59:32.672Z,3.92
2022-07-27T03:01:59.941Z,3.67
2022-07-27T03:04:27.270Z,3.33
2022-07-27T03:06:54.498Z,3.20
2022-07-27T03:09:32.725Z,3.22
2022-07-27T03:12:00.731Z,3.38
2022-07-27T03:14:28.018Z,3.60
2022-07-27T03:16:55.174Z,3.38
2022-07-27T03:19:25.715Z,3.17
2022-07-27T03:21:55.540Z,3.50
2022-07-27T03:24:22.770Z,3.33
2022-07-27T03:26:49.926Z,3.15
2022-07-27T03:29:17.448Z,2.97
2022-07-27T03:31:45.492Z,3.35
2022-07-27T03:34:14.207Z,2.75
2022-07-27T03:36:41.546Z,3.10
2022-07-27T03:39:08.869Z,3.25
2022-07-27T03:41:36.250Z,3.13
2022-07-27T03:44:03.560Z,3.15
2022-07-27T03:46:30.757Z,3.20
2022-07-27T03:48:58.013Z,3.67
2022-07-27T03:51:25.415Z,3.10
2022-07-27T03:53:52.570Z,3.13
2022-07-27T03:56:19.731Z,3.05
2022-07-27T03:58:46.940Z,2.97
2022-07-27T04:01:14.136Z,2.80
2022-07-27T04:03:44.388Z,3.40
2022-07-27T04:06:12.144Z,3.13
2022-07-27T04:08:39.361Z,3.28
2022-07-27T04:11:07.741Z,3.20
2022-07-27T04:13:38.198Z,3.30
2022-07-27T04:16:05.702Z,3.10
2022-07-27T04:18:32.859Z,3.20
2022-07-27T04:21:02.080Z,2.78
2022-07-27T04:23:29.281Z,3.15
2022-07-27T04:25:56.983Z,2.80
2022-07-27T04:28:24.282Z,3.45
2022-07-27T04:30:53.615Z,3.60
2022-07-27T04:33:20.851Z,3.58
2022-07-27T04:35:48.301Z,3.72
2022-07-27T04:38:15.447Z,3.47
2022-07-27T04:40:42.588Z,3.15
2022-07-27T04:43:09.801Z,3.08
2022-07-27T04:45:37.634Z,3.28
2022-07-27T04:48:09.550Z,2.90
2022-07-27T04:50:54.623Z,3.40
2022-07-27T04:53:21.772Z,3.20
2022-07-27T04:55:48.925Z,3.50
2022-07-27T04:58:16.378Z,2.83
2022-07-27T05:00:44.107Z,3.20
2022-07-27T05:03:11.484Z,3.63
2022-07-27T05:05:38.893Z,3.47
2022-07-27T05:08:07.100Z,3.08
2022-07-27T05:10:34.311Z,3.47
2022-07-27T05:13:01.858Z,3.15
2022-07-27T05:15:29.178Z,3.53
2022-07-27T05:18:16.476Z,3.50
2022-07-27T05:20:43.628Z,3.05
2022-07-27T05:23:11.023Z,4.07
2022-07-27T05:25:38.467Z,4.00
2022-07-27T05:28:05.810Z,4.43
2022-07-27T05:30:33.100Z,3.85
2022-07-27T05:33:01.074Z,4.10
2022-07-27T05:35:28.215Z,3.80
2022-07-27T05:37:55.358Z,4.10
2022-07-27T05:40:22.640Z,4.10
2022-07-27T05:42:49.797Z,5.05
2022-07-27T05:45:17.025Z,4.20
2022-07-27T05:47:44.334Z,4.00
2022-07-27T05:50:11.530Z,4.22
2022-07-27T05:52:38.771Z,4.22
2022-07-27T05:55:06.691Z,4.22
2022-07-27T05:57:34.102Z,3.83
2022-07-27T06:00:01.600Z,3.70
2022-07-27T06:02:31.647Z,4.28
2022-07-27T06:04:58.837Z,3.58
2022-07-27T06:07:44.829Z,3.92
2022-07-27T06:10:16.910Z,4.07
2022-07-27T06:12:44.629Z,4.05
2022-07-27T06:15:12.330Z,3.95
2022-07-27T06:17:39.641Z,3.80
2022-07-27T06:20:07.986Z,4.00
2022-07-27T06:22:44.929Z,4.50
2022-07-27T06:25:12.936Z,4.05
2022-07-27T06:27:40.191Z,4.70
2022-07-27T06:30:08.045Z,4.20
2022-07-27T06:32:35.366Z,4.70
2022-07-27T06:35:03.110Z,4.60
2022-07-27T06:37:31.297Z,4.72
2022-07-27T06:39:59.275Z,5.20
2022-07-27T06:42:26.428Z,4.22
2022-07-27T06:44:53.623Z,4.40
2022-07-27T06:47:24.871Z,4.75
2022-07-27T06:49:56.113Z,5.03
2022-07-27T06:52:23.402Z,4.63
2022-07-27T06:54:50.563Z,5.25
2022-07-27T06:57:17.758Z,4.70
2022-07-27T06:59:44.990Z,4.63
2022-07-27T07:02:12.335Z,4.15
2022-07-27T07:04:39.493Z,4.50
2022-07-27T07:07:07.310Z,4.65
2022-07-27T07:09:34.820Z,4.20
2022-07-27T07:12:02.484Z,4.30
2022-07-27T07:14:29.708Z,4.40
2022-07-27T07:16:56.841Z,4.72
2022-07-27T07:19:23.970Z,5.18
2022-07-27T07:21:51.795Z,5.22
2022-07-27T07:24:19.024Z,5.60
2022-07-27T07:26:46.245Z,5.55
2022-07-27T07:29:13.811Z,5.32
2022-07-27T07:31:41.329Z,5.78
2022-07-27T07:34:08.609Z,4.88
2022-07-27T07:36:35.851Z,5.25
2022-07-27T07:39:03.060Z,4.78
2022-07-27T07:41:30.294Z,4.28
2022-07-27T07:43:57.573Z,5.47
2022-07-27T07:46:24.822Z,4.95
2022-07-27T07:48:52.991Z,4.70
2022-07-27T07:51:20.336Z,5.45
2022-07-27T07:53:47.506Z,4.88
2022-07-27T07:56:14.649Z,4.50
2022-07-27T07:58:42.014Z,5.28
2022-07-27T08:01:09.206Z,4.78
2022-07-27T08:03:36.396Z,4.28
2022-07-27T08:06:03.721Z,4.38
2022-07-27T08:08:30.972Z,4.80
2022-07-27T08:10:58.223Z,5.95
2022-07-27T08:13:25.530Z,5.40
2022-07-27T08:15:53.440Z,4.18
2022-07-27T08:18:21.293Z,3.95
2022-07-27T08:20:48.588Z,4.32
2022-07-27T08:23:15.717Z,4.55
2022-07-27T08:25:42.879Z,4.30
2022-07-27T08:28:10.277Z,4.72
2022-07-27T08:30:37.442Z,4.70
2022-07-27T08:33:06.994Z,5.25
2022-07-27T08:35:35.230Z,5.45
2022-07-27T08:38:03.343Z,4.75
2022-07-27T08:40:40.388Z,4.88
2022-07-27T08:43:09.232Z,4.00
2022-07-27T08:45:37.300Z,4.78
2022-07-27T08:48:05.015Z,4.32
2022-07-27T08:50:34.776Z,6.07
2022-07-27T08:53:07.026Z,4.40
2022-07-27T08:55:35.959Z,4.90
2022-07-27T08:58:03.984Z,4.22
2022-07-27T09:00:31.976Z,4.60
2022-07-27T09:02:59.393Z,4.72
2022-07-27T09:05:33.321Z,4.45
2022-07-27T09:08:11.681Z,4.38
2022-07-27T09:10:39.386Z,4.40
2022-07-27T09:13:24.893Z,4.22
2022-07-27T09:18:42.201Z,4.22
2022-07-27T09:21:11.370Z,3.28
2022-07-27T09:23:39.687Z,3.83
2022-07-27T09:26:26.153Z,3.90
2022-07-27T09:29:01.750Z,3.67
2022-07-27T09:31:29.221Z,3.08
2022-07-27T09:33:57.749Z,3.65
2022-07-27T09:36:25.849Z,3.80
2022-07-27T09:39:03.489Z,2.65
2022-07-27T09:41:44.189Z,3.40
2022-07-27T09:44:31.726Z,3.30
2022-07-27T09:47:00.252Z,3.50
2022-07-27T09:49:34.711Z,2.97
2022-07-27T09:52:03.294Z,3.22
2022-07-27T09:54:44.377Z,2.88
2022-07-27T09:57:11.808Z,3.10
2022-07-27T09:59:39.078Z,3.13
2022-07-27T10:02:06.721Z,3.00
2022-07-27T10:04:34.508Z,2.72
2022-07-27T10:07:03.873Z,2.42
2022-07-27T10:11:59.050Z,3.30
2022-07-27T10:14:26.316Z,3.05
2022-07-27T10:16:54.092Z,2.33
2022-07-27T10:19:21.584Z,2.58
2022-07-27T10:21:49.884Z,2.70
2022-07-27T10:24:29.132Z,2.70
2022-07-27T10:26:56.494Z,2.60
2022-07-27T10:29:24.348Z,2.65
2022-07-27T10:31:54.416Z,2.40
2022-07-27T10:36:50.803Z,2.22
2022-07-27T10:39:26.886Z,2.27
2022-07-27T10:41:54.144Z,2.47
2022-07-27T10:44:21.459Z,2.55
2022-07-27T10:46:55.526Z,2.00
2022-07-27T10:49:22.757Z,2.42
2022-07-27T10:51:50.694Z,2.70
2022-07-27T10:54:27.066Z,2.65
2022-07-27T10:56:56.185Z,2.63
2022-07-27T11:00:07.477Z,2.53
2022-07-27T11:02:39.542Z,2.47
2022-07-27T11:05:07.550Z,2.67
2022-07-27T11:07:44.594Z,2.70
2022-07-27T11:10:13.184Z,2.65
2022-07-27T11:12:41.344Z,2.63
2022-07-27T11:15:08.627Z,1.95
2022-07-27T11:20:24.144Z,2.78
2022-07-27T11:25:38.832Z,2.67
2022-07-27T11:28:09.915Z,2.00
2022-07-27T11:30:37.379Z,2.33
2022-07-27T11:33:05.037Z,2.08
2022-07-27T11:35:32.382Z,2.05
2022-07-27T11:38:01.121Z,2.42
2022-07-27T11:40:56.051Z,2.17
2022-07-27T11:43:37.181Z,2.50
2022-07-27T11:46:20.200Z,2.15
2022-07-27T11:49:11.849Z,2.55
2022-07-27T11:51:43.574Z,2.33
2022-07-27T11:54:14.758Z,2.30
2022-07-27T11:56:45.778Z,3.03
2022-07-27T11:59:14.858Z,2.78
2022-07-27T12:01:47.406Z,2.87
2022-07-27T12:04:16.009Z,2.40
2022-07-27T12:06:44.761Z,2.60
2022-07-27T12:09:14.278Z,2.72
2022-07-27T12:11:53.617Z,2.65
2022-07-27T12:14:30.898Z,2.35
2022-07-27T12:17:13.367Z,2.38
2022-07-27T12:19:41.814Z,3.10
2022-07-27T12:22:09.249Z,3.50
2022-07-27T12:24:38.824Z,3.47
2022-07-27T12:27:08.043Z,2.70
2022-07-27T12:29:54.510Z,2.70
2022-07-27T12:32:21.787Z,3.13
2022-07-27T12:34:49.011Z,2.83
2022-07-27T12:37:16.284Z,2.80
2022-07-27T12:39:44.335Z,2.78
2022-07-27T12:42:12.311Z,2.58
2022-07-27T12:44:40.998Z,2.92
2022-07-27T12:47:28.270Z,2.78
2022-07-27T12:50:07.794Z,2.90
2022-07-27T12:52:36.274Z,3.00
2022-07-27T12:55:03.912Z,2.90
2022-07-27T12:57:53.967Z,2.75
2022-07-27T13:00:19.393Z,2.85
2022-07-27T13:02:46.833Z,2.83
2022-07-27T13:05:14.867Z,3.22
2022-07-27T13:07:49.176Z,2.90
2022-07-27T13:10:20.191Z,3.05
2022-07-27T13:12:47.958Z,2.58
2022-07-27T13:15:15.650Z,3.28
2022-07-27T13:17:43.498Z,2.85
2022-07-27T13:20:11.329Z,2.70
2022-07-27T13:22:39.067Z,2.72
2022-07-27T13:25:15.656Z,2.90
2022-07-27T13:27:44.313Z,3.42
2022-07-27T13:30:13.274Z,3.40
2022-07-27T13:32:41.078Z,3.05
2022-07-27T13:35:08.876Z,2.75
2022-07-27T13:37:36.215Z,2.90
2022-07-27T13:40:04.541Z,2.58
2022-07-27T13:42:31.881Z,2.25
2022-07-27T13:45:08.502Z,2.40
2022-07-27T13:47:37.579Z,2.65
2022-07-27T13:50:05.249Z,2.30
2022-07-27T13:52:32.462Z,2.63
2022-07-27T13:54:59.709Z,2.72
2022-07-27T13:57:26.850Z,2.60
2022-07-27T13:59:54.693Z,2.50
2022-07-27T14:02:23.245Z,2.40
2022-07-27T14:04:53.273Z,2.97
2022-07-27T14:07:24.849Z,3.25
2022-07-27T14:10:14.189Z,3.20
2022-07-27T14:12:41.483Z,2.95
2022-07-27T14:15:08.871Z,2.78
2022-07-27T14:17:37.622Z,3.17
2022-07-27T14:20:05.684Z,2.67
2022-07-27T14:22:33.015Z,2.45
2022-07-27T14:25:00.345Z,2.60
2022-07-27T14:27:33.581Z,2.60
2022-07-27T14:30:06.870Z,2.63
2022-07-27T14:32:34.528Z,2.30
2022-07-27T14:35:01.730Z,3.03
2022-07-27T14:37:29.014Z,2.72
2022-07-27T14:39:56.494Z,2.90
2022-07-27T14:42:25.035Z,3.00
2022-07-27T14:44:52.310Z,3.05
2022-07-27T14:47:19.866Z,3.03
2022-07-27T14:49:47.317Z,2.70
2022-07-27T14:52:14.650Z,3.03
2022-07-27T14:54:42.413Z,2.65
2022-07-27T14:57:09.663Z,2.80
2022-07-27T14:59:37.057Z,3.03
2022-07-27T15:02:04.290Z,2.80
2022-07-27T15:04:31.680Z,3.25
2022-07-27T15:06:59.991Z,3.38
2022-07-27T15:09:30.375Z,3.35
2022-07-27T15:11:58.621Z,3.47
2022-07-27T15:14:26.065Z,3.70
2022-07-27T15:16:53.704Z,3.25
2022-07-27T15:19:21.072Z,3.25
2022-07-27T15:21:48.503Z,3.03
2022-07-27T15:24:15.727Z,3.50
2022-07-27T15:26:42.889Z,3.70
2022-07-27T15:29:14.935Z,3.63
2022-07-27T15:31:43.371Z,3.72
2022-07-27T15:34:11.114Z,3.78
2022-07-27T15:36:44.654Z,4.53
2022-07-27T15:39:15.292Z,4.00
2022-07-27T15:41:42.822Z,3.88
2022-07-27T15:44:09.987Z,3.90
2022-07-27T15:46:37.271Z,3.58
2022-07-27T15:49:04.685Z,3.70
2022-07-27T15:51:32.426Z,3.30
2022-07-27T15:53:59.727Z,3.60
2022-07-27T15:56:27.116Z,3.60
2022-07-27T15:58:54.377Z,3.42
2022-07-27T16:01:21.965Z,3.53
2022-07-27T16:03:49.773Z,3.90
2022-07-27T16:06:19.105Z,3.47
2022-07-27T16:08:47.340Z,4.30
2022-07-27T16:11:14.523Z,3.67
2022-07-27T16:13:42.020Z,3.58
2022-07-27T16:16:25.253Z,3.65
2022-07-27T16:18:53.521Z,3.92
2022-07-27T16:21:22.541Z,4.32
2022-07-27T16:23:50.207Z,4.15
2022-07-27T16:26:17.401Z,4.07
2022-07-27T16:28:48.704Z,4.00
2022-07-27T16:31:18.795Z,4.03
2022-07-27T16:33:46.151Z,3.95
2022-07-27T16:36:13.485Z,4.00
2022-07-27T16:38:50.432Z,4.63
2022-07-27T16:41:19.003Z,3.67
2022-07-27T16:43:46.282Z,3.67
2022-07-27T16:46:14.054Z,4.20
2022-07-27T16:48:45.156Z,4.55
2022-07-27T16:51:13.613Z,4.57
2022-07-27T16:53:44.754Z,4.47
2022-07-27T16:56:12.101Z,4.05
2022-07-27T16:58:39.537Z,4.20
2022-07-27T17:01:06.770Z,4.28
2022-07-27T17:03:34.285Z,4.22
2022-07-27T17:06:06.176Z,3.90
2022-07-27T17:08:33.947Z,4.13
2022-07-27T17:11:02.644Z,4.28
2022-07-27T17:13:34.134Z,3.80
2022-07-27T17:16:02.713Z,3.97
2022-07-27T17:18:32.232Z,3.40
2022-07-27T17:21:03.081Z,3.67
2022-07-27T17:23:35.580Z,3.30
2022-07-27T17:26:02.844Z,2.90
2022-07-27T17:28:29.992Z,3.55
2022-07-27T17:30:57.407Z,3.53
2022-07-27T17:33:25.512Z,3.67
2022-07-27T17:35:52.759Z,3.58
2022-07-27T17:38:22.187Z,3.38
2022-07-27T17:40:49.364Z,3.80
2022-07-27T17:43:16.531Z,3.35
2022-07-27T17:45:43.730Z,3.67
2022-07-27T17:48:10.870Z,3.35
2022-07-27T17:50:38.020Z,4.03
2022-07-27T17:53:05.308Z,3.67
2022-07-27T17:55:34.875Z,3.67
2022-07-27T17:58:02.028Z,3.83
2022-07-27T18:00:29.658Z,3.83
2022-07-27T18:02:57.185Z,4.03
2022-07-27T18:05:24.394Z,4.20
2022-07-27T18:07:53.260Z,4.40
2022-07-27T18:10:21.019Z,4.05
2022-07-27T18:12:48.229Z,3.92
2022-07-27T18:15:34.477Z,4.30
2022-07-27T18:18:01.730Z,4.40
2022-07-27T18:20:30.342Z,5.10
2022-07-27T18:22:57.639Z,5.03
2022-07-27T18:25:26.250Z,5.10
2022-07-27T18:27:53.403Z,5.15
2022-07-27T18:30:20.789Z,4.90
2022-07-27T18:32:48.025Z,4.85
2022-07-27T18:35:15.208Z,5.20
2022-07-27T18:37:42.594Z,5.47
2022-07-27T18:40:10.792Z,5.03
2022-07-27T18:42:39.082Z,5.13
2022-07-27T18:45:07.165Z,6.00
2022-07-27T18:47:34.321Z,5.72
2022-07-27T18:50:01.454Z,5.35
2022-07-27T18:52:28.725Z,5.18
2022-07-27T18:54:55.861Z,5.82
2022-07-27T18:57:23.008Z,5.70
2022-07-27T18:59:50.896Z,6.75
2022-07-27T19:02:19.525Z,6.25
2022-07-27T19:04:47.283Z,5.57
2022-07-27T19:07:15.878Z,5.47
2022-07-27T19:09:43.185Z,5.38
2022-07-27T19:12:10.431Z,6.18
2022-07-27T19:14:39.051Z,5.80
2022-07-27T19:17:06.581Z,6.70
2022-07-27T19:19:38.053Z,6.10
2022-07-27T19:22:05.330Z,6.43
2022-07-27T19:24:32.578Z,5.95
2022-07-27T19:26:59.773Z,5.47
2022-07-27T19:29:27.070Z,5.82
2022-07-27T19:31:54.258Z,6.20
2022-07-27T19:34:21.493Z,5.03
2022-07-27T19:36:48.785Z,4.88
2022-07-27T19:39:16.444Z,5.00
2022-07-27T19:41:43.812Z,4.90
2022-07-27T19:44:11.161Z,4.68
2022-07-27T19:46:38.395Z,4.72
2022-07-27T19:49:05.620Z,5.32
2022-07-27T19:51:33.023Z,4.53
2022-07-27T19:54:00.221Z,5.10
2022-07-27T19:56:27.455Z,4.47
2022-07-27T19:58:54.706Z,4.30
2022-07-27T20:01:21.989Z,4.40
2022-07-27T20:03:54.415Z,4.13
2022-07-27T20:06:23.421Z,4.05
2022-07-27T20:08:50.628Z,4.30
2022-07-27T20:11:17.816Z,4.45
2022-07-27T20:13:45.106Z,3.97
2022-07-27T20:16:14.374Z,4.28
2022-07-27T20:18:41.569Z,4.63
2022-07-27T20:21:22.479Z,4.15
2022-07-27T20:23:52.051Z,4.57
2022-07-27T20:26:19.422Z,4.32
2022-07-27T20:28:47.233Z,4.43
2022-07-27T20:31:14.697Z,4.47
2022-07-27T20:33:41.974Z,4.30
2022-07-27T20:36:09.164Z,4.30
2022-07-27T20:38:36.332Z,3.85
2022-07-27T20:41:03.663Z,4.03
2022-07-27T20:43:31.834Z,3.80
2022-07-27T20:45:59.106Z,4.10
2022-07-27T20:48:26.498Z,3.28
2022-07-27T20:50:53.917Z,3.83
2022-07-27T20:53:21.156Z,3.70
2022-07-27T20:55:48.912Z,3.20
2022-07-27T20:58:16.359Z,3.58
2022-07-27T21:00:43.756Z,3.50
2022-07-27T21:03:11.145Z,3.22
2022-07-27T21:05:38.400Z,3.05
2022-07-27T21:08:05.671Z,2.90
2022-07-27T21:10:33.252Z,2.85
2022-07-27T21:13:00.433Z,3.33
2022-07-27T21:15:34.081Z,3.13
2022-07-27T21:18:02.017Z,2.83
2022-07-27T21:20:29.494Z,2.63
2022-07-27T21:23:15.733Z,2.90
2022-07-27T21:25:44.162Z,2.58
2022-07-27T21:28:13.224Z,2.55
2022-07-27T21:30:45.415Z,2.60
2022-07-27T21:33:12.612Z,2.65
2022-07-27T21:35:39.824Z,2.88
2022-07-27T21:38:07.188Z,2.50
2022-07-27T21:40:34.415Z,2.70
2022-07-27T21:43:01.570Z,3.28
2022-07-27T21:45:28.959Z,3.33
2022-07-27T21:47:56.183Z,3.20
2022-07-27T21:50:23.470Z,3.20
2022-07-27T21:52:52.361Z,3.38
2022-07-27T21:55:23.359Z,3.17
2022-07-27T21:57:51.122Z,3.63
2022-07-27T22:00:24.035Z,3.30
2022-07-27T22:02:51.767Z,3.20
2022-07-27T22:05:19.058Z,3.45
2022-07-27T22:07:46.329Z,2.97
2022-07-27T22:10:13.536Z,3.00
2022-07-27T22:12:40.777Z,3.55
2022-07-27T22:15:08.395Z,3.05
2022-07-27T22:17:35.994Z,3.20
2022-07-27T22:20:14.084Z,3.30
2022-07-27T22:22:41.332Z,3.30
2022-07-27T22:25:08.673Z,3.25
2022-07-27T22:27:35.894Z,4.22
2022-07-27T22:30:03.095Z,3.45
2022-07-27T22:32:30.249Z,3.72
2022-07-27T22:34:57.577Z,3.47
2022-07-27T22:37:24.754Z,3.65
2022-07-27T22:39:51.966Z,3.67
2022-07-27T22:42:19.183Z,3.83
2022-07-27T22:44:46.340Z,4.03
2022-07-27T22:47:13.556Z,3.75
2022-07-27T22:49:41.015Z,4.60
2022-07-27T22:52:08.188Z,4.20
2022-07-27T22:54:36.586Z,4.53
2022-07-27T22:57:04.326Z,4.40
2022-07-27T22:59:31.475Z,4.82
2022-07-27T23:01:58.900Z,5.25
2022-07-27T23:04:26.286Z,5.03
2022-07-27T23:06:53.605Z,4.60
2022-07-27T23:09:21.276Z,4.95
2022-07-27T23:11:48.589Z,4.88
2022-07-27T23:14:16.210Z,4.75
2022-07-27T23:16:44.096Z,5.05
2022-07-27T23:19:11.526Z,4.80
2022-07-27T23:21:41.782Z,4.57
2022-07-27T23:24:09.847Z,4.03
2022-07-27T23:26:38.219Z,4.38
2022-07-27T23:29:05.384Z,4.57
2022-07-27T23:31:32.614Z,3.95
2022-07-27T23:33:59.986Z,4.18
2022-07-27T23:36:27.139Z,3.58
2022-07-27T23:38:54.310Z,3.85
2022-07-27T23:41:21.705Z,3.58
2022-07-27T23:43:48.844Z,3.80
2022-07-27T23:46:16.065Z,3.55
2022-07-27T23:48:43.934Z,3.35
2022-07-27T23:51:16.248Z,3.13
2022-07-27T23:53:43.446Z,3.10
2022-07-27T23:56:10.688Z,3.20
2022-07-27T23:58:37.856Z,3.30
